Aérodrome :
LOGIN :

S'inscrire | Disclaimer

   EN    FR    IT 

 










Légende :    VFR   VFR Marginal   IFR   IFR Intensif   IFR Très Intensif
Visi : 
Plafond : 
>= 8 km
>= 3000ft
5 à 8 km
1000 à 3000 ft
1500m à 5 km
500 à 1000 ft
800 à 1500m
200 à 500 ft
< 800m
< 200 ft
Symboles :   Orages  Brouillard  Fortes neiges  Fortes précipitations  Vent > 20 kt
SIGMETs :   Divers  Orages  Givrage  Turbulence  Onde Orograph.  Cendres Volcan.






- Altitude de l'aérodrome : 1197 ft
- Code IATA : SPM


ETAD - Spangdahlem Ab

DERNIER METAR :
  • 281256Z AUTO 05011G20KT 9999 CLR 20/03 A3041 RMK AO2 SLP282 T02010033 $

METARs EXPIRÉS :
  • 281156Z AUTO 04012G19KT 9999 CLR 20/02 A3042 RMK AO2 SLP285 T01990023 10200 20127 57010 $
  • 281123Z AUTO 08012G17KT 9999 FEW210 20/03 A3043 RMK AO2 WSHFT 20 SLP289 $
  • 281056Z AUTO 08014G21KT 9999 CLR 19/05 A3043 RMK AO2 SLP289 T01880049 $

TAF TAF ETAD
Valide du 28 à 12h jusqu'au 29 à 18h UTC


281200Z 2812/2918 05012G18KT 9999 FEW050 QNH3028INS WND 05009KT AFT 2817
BECMG 2907/2908 05010G15KT 9999 SKC QNH3025INS TX22/2815Z TN08/2904Z



MET'MAP, la Météo Aéronautique d'un coup d'oeil ! - Copyright ORBIFLY Décembre 2007 - Disclaimer

ORBIFLY MET'MAP TEAM :

Programmation & Développement : Alexandra Zaïnal
Sur une idée originale de : Baudouin d'Aumeries
Assistance à la programmation : Marc-Olivier Méhu
Soutien technique & logistique : Manuel Goepfert

Contact : metmap@orbifly.com




SOURCES & CREDITS :

   NOAA